createdAt,value
2019-02-08T00:00:23.015Z,99209.72
2019-02-08T00:02:52.113Z,99213.27
2019-02-08T00:05:21.273Z,99213.05
2019-02-08T00:07:50.431Z,99214.43
2019-02-08T00:10:19.489Z,99215.02
2019-02-08T00:12:50.520Z,99217.09
2019-02-08T00:15:20.059Z,99223.53
2019-02-08T00:17:51.254Z,99218.28
2019-02-08T00:20:21.676Z,99223.75
2019-02-08T00:22:51.902Z,99222.16
2019-02-08T00:25:21.007Z,99223.66
2019-02-08T00:27:50.103Z,99215.77
2019-02-08T00:30:21.294Z,99213.78
2019-02-08T00:32:50.397Z,99219.32
2019-02-08T00:35:19.453Z,99216.30
2019-02-08T00:37:48.534Z,99218.44
2019-02-08T00:40:17.748Z,99225.68
2019-02-08T00:42:46.842Z,99228.80
2019-02-08T00:45:16.711Z,99227.97
2019-02-08T00:47:47.878Z,99226.28
2019-02-08T00:50:18.620Z,99234.27
2019-02-08T00:52:47.794Z,99233.88
2019-02-08T00:55:16.811Z,99235.30
2019-02-08T00:57:45.953Z,99230.91
2019-02-08T01:00:15.777Z,99227.51
2019-02-08T01:02:44.880Z,99225.94
2019-02-08T01:05:15.582Z,99228.17
2019-02-08T01:07:44.709Z,99230.74
2019-02-08T01:10:19.441Z,99238.33
2019-02-08T01:12:48.524Z,99236.04
2019-02-08T01:15:17.985Z,99240.22
2019-02-08T01:17:47.079Z,99234.47
2019-02-08T01:20:18.500Z,99241.46
2019-02-08T01:22:47.570Z,99247.88
2019-02-08T01:25:18.791Z,99248.81
2019-02-08T01:27:48.321Z,99251.31
2019-02-08T01:30:21.096Z,99250.94
2019-02-08T01:32:50.240Z,99236.48
2019-02-08T01:35:19.403Z,99241.06
2019-02-08T01:37:48.648Z,99243.66
2019-02-08T01:40:21.659Z,99238.65
2019-02-08T01:42:50.722Z,99234.49
2019-02-08T01:45:21.659Z,99245.61
2019-02-08T01:47:50.735Z,99241.67
2019-02-08T01:50:21.826Z,99236.94
2019-02-08T01:52:50.912Z,99238.95
2019-02-08T01:55:20.006Z,99241.03
2019-02-08T01:57:49.819Z,99243.38
2019-02-08T02:00:27.073Z,99239.83
2019-02-08T02:02:56.196Z,99241.12
2019-02-08T02:05:27.181Z,99240.21
2019-02-08T02:07:56.257Z,99242.52
2019-02-08T02:10:30.687Z,99239.13
2019-02-08T02:12:59.810Z,99239.50
2019-02-08T02:15:29.109Z,99235.47
2019-02-08T02:17:58.179Z,99238.16
2019-02-08T02:20:30.961Z,99232.26
2019-02-08T02:23:01.264Z,99243.45
2019-02-08T02:25:30.537Z,99234.97
2019-02-08T02:27:59.645Z,99227.42
2019-02-08T02:30:32.306Z,99233.02
2019-02-08T02:33:01.350Z,99243.20
2019-02-08T02:35:30.437Z,99227.02
2019-02-08T02:37:59.489Z,99234.36
2019-02-08T02:40:28.605Z,99226.30
2019-02-08T02:42:57.678Z,99228.37
2019-02-08T02:45:29.082Z,99222.62
2019-02-08T02:47:58.191Z,99220.86
2019-02-08T02:50:27.401Z,99220.38
2019-02-08T02:52:56.489Z,99223.87
2019-02-08T02:55:26.164Z,99224.72
2019-02-08T02:57:55.365Z,99225.11
2019-02-08T03:00:33.489Z,99227.73
2019-02-08T03:03:02.852Z,99226.30
2019-02-08T03:05:33.223Z,99224.53
2019-02-08T03:08:02.521Z,99222.95
2019-02-08T03:10:31.627Z,99222.36
2019-02-08T03:13:00.804Z,99224.53
2019-02-08T03:15:32.164Z,99221.52
2019-02-08T03:18:01.217Z,99213.05
2019-02-08T03:20:30.275Z,99211.19
2019-02-08T03:22:59.386Z,99205.98
2019-02-08T03:25:28.462Z,99212.59
2019-02-08T03:27:57.566Z,99215.65
2019-02-08T03:30:40.751Z,99207.48
2019-02-08T03:33:09.838Z,99214.80
2019-02-08T03:35:38.873Z,99212.81
2019-02-08T03:38:07.984Z,99211.67
2019-02-08T03:40:37.047Z,99214.77
2019-02-08T03:43:06.168Z,99214.22
2019-02-08T03:45:38.895Z,99209.91
2019-02-08T03:48:08.050Z,99208.19
2019-02-08T03:50:39.751Z,99200.35
2019-02-08T03:53:09.260Z,99214.95
2019-02-08T03:55:39.018Z,99217.96
2019-02-08T03:58:08.926Z,99211.05
2019-02-08T04:01:00.807Z,99219.17
2019-02-08T04:03:29.926Z,99212.65
2019-02-08T04:06:00.621Z,99216.64
2019-02-08T04:08:29.733Z,99211.83
2019-02-08T04:11:00.253Z,99210.92
2019-02-08T04:13:29.375Z,99207.71
2019-02-08T04:15:59.577Z,99204.39
2019-02-08T04:18:28.982Z,99200.98
2019-02-08T04:20:58.097Z,99200.77
2019-02-08T04:23:27.149Z,99202.80
2019-02-08T04:25:56.226Z,99201.13
2019-02-08T04:28:25.739Z,99201.86
2019-02-08T04:30:54.854Z,99200.27
2019-02-08T04:33:23.975Z,99204.03
2019-02-08T04:35:53.061Z,99211.60
2019-02-08T04:38:22.209Z,99208.84
2019-02-08T04:40:51.320Z,99207.20
2019-02-08T04:43:20.468Z,99208.34
2019-02-08T04:45:49.582Z,99217.78
2019-02-08T04:48:18.724Z,99214.55
2019-02-08T04:50:47.889Z,99216.37
2019-02-08T04:53:17.015Z,99210.38
2019-02-08T04:55:46.186Z,99206.53
2019-02-08T04:58:15.287Z,99201.31
2019-02-08T05:00:44.475Z,99207.39
2019-02-08T05:03:13.568Z,99202.34
2019-02-08T05:05:42.677Z,99206.47
2019-02-08T05:08:11.779Z,99194.89
2019-02-08T05:10:40.844Z,99203.20
2019-02-08T05:13:10.007Z,99199.69
2019-02-08T05:15:40.707Z,99199.79
2019-02-08T05:18:09.797Z,99204.00
2019-02-08T05:20:41.019Z,99197.20
2019-02-08T05:23:10.068Z,99191.38
2019-02-08T05:25:39.212Z,99185.16
2019-02-08T05:28:08.253Z,98680.53
2019-02-08T05:30:37.359Z,99189.64
2019-02-08T05:33:08.533Z,99188.91
2019-02-08T05:35:37.716Z,99185.78
2019-02-08T05:38:06.823Z,99187.47
2019-02-08T05:40:35.913Z,99182.59
2019-02-08T05:43:05.517Z,99183.74
2019-02-08T05:45:37.974Z,99177.09
2019-02-08T05:48:08.410Z,99173.89
2019-02-08T05:50:37.494Z,99168.99
2019-02-08T05:53:08.853Z,99161.89
2019-02-08T05:55:38.041Z,99162.52
2019-02-08T05:58:07.860Z,99169.03
2019-02-08T06:01:07.512Z,99167.09
2019-02-08T06:03:36.577Z,99166.41
2019-02-08T06:06:07.627Z,99165.97
2019-02-08T06:08:36.719Z,99169.00
2019-02-08T06:11:05.896Z,99168.67
2019-02-08T06:13:34.987Z,99170.45
2019-02-08T06:16:04.520Z,99168.08
2019-02-08T06:18:33.633Z,99172.20
2019-02-08T06:21:02.792Z,99173.24
2019-02-08T06:23:44.268Z,99177.69
2019-02-08T06:26:14.631Z,99177.63
2019-02-08T06:28:47.865Z,99180.98
2019-02-08T06:31:17.099Z,99183.30
2019-02-08T06:33:46.249Z,99181.16
2019-02-08T06:36:16.810Z,99181.62
2019-02-08T06:38:45.876Z,99185.56
2019-02-08T06:41:14.956Z,99189.54
2019-02-08T06:43:44.069Z,99181.27
2019-02-08T06:46:13.150Z,99184.02
2019-02-08T06:48:42.816Z,99183.86
2019-02-08T06:51:12.753Z,99180.96
2019-02-08T06:53:42.762Z,99185.11
2019-02-08T06:56:31.649Z,99190.28
2019-02-08T06:59:25.638Z,99189.81
2019-02-08T07:02:19.887Z,99188.30
2019-02-08T07:04:57.298Z,99187.22
2019-02-08T07:07:35.280Z,99184.05
2019-02-08T07:10:32.987Z,99182.51
2019-02-08T07:13:30.435Z,99192.06
2019-02-08T07:16:10.435Z,99201.84
2019-02-08T07:18:47.168Z,99202.86
2019-02-08T07:21:38.610Z,99204.58
2019-02-08T07:24:29.585Z,99208.02
2019-02-08T07:27:05.404Z,99204.29
2019-02-08T07:29:53.458Z,99204.66
2019-02-08T07:32:30.016Z,99207.34
2019-02-08T07:35:16.729Z,99201.55
2019-02-08T07:38:03.365Z,99200.75
2019-02-08T07:40:53.670Z,99201.34
2019-02-08T07:43:51.135Z,99209.28
2019-02-08T07:46:37.585Z,99200.94
2019-02-08T07:49:24.480Z,99204.80
2019-02-08T07:52:30.721Z,99200.69
2019-02-08T07:55:28.185Z,99203.52
2019-02-08T07:58:14.951Z,99207.70
2019-02-08T08:01:00.638Z,99212.61
2019-02-08T08:03:48.662Z,99208.69
2019-02-08T08:06:38.319Z,99213.07
2019-02-08T08:09:29.798Z,99202.92
2019-02-08T08:12:06.746Z,99195.05
2019-02-08T08:15:01.384Z,99196.03
2019-02-08T08:17:48.006Z,99188.91
2019-02-08T08:20:42.613Z,99188.45
2019-02-08T08:23:35.132Z,99187.24
2019-02-08T08:26:22.097Z,99185.21
2019-02-08T08:29:11.553Z,99181.77
2019-02-08T08:31:48.885Z,99182.70
2019-02-08T08:35:08.048Z,99189.20
2019-02-08T08:38:29.466Z,99191.72
2019-02-08T08:41:51.853Z,99194.66
2019-02-08T08:45:00.957Z,99189.44
2019-02-08T08:48:06.055Z,99187.89
2019-02-08T08:51:06.083Z,99196.03
2019-02-08T08:54:12.680Z,99202.63
2019-02-08T08:57:12.053Z,99196.75
2019-02-08T09:00:18.086Z,99193.42
2019-02-08T09:03:25.529Z,99182.16
2019-02-08T09:06:28.073Z,99182.44
2019-02-08T09:10:01.770Z,99182.03
2019-02-08T09:13:16.518Z,99180.05
2019-02-08T09:16:21.957Z,99180.67
2019-02-08T09:19:27.796Z,99177.48
2019-02-08T09:22:33.656Z,99176.11
2019-02-08T09:25:30.409Z,99177.37
2019-02-08T09:28:18.574Z,99175.20
2019-02-08T09:31:13.560Z,99173.69
2019-02-08T09:34:18.003Z,99175.24
2019-02-08T09:37:13.975Z,99170.73
2019-02-08T09:40:29.373Z,99158.86
2019-02-08T09:43:27.306Z,99162.05
2019-02-08T09:46:26.234Z,99158.09
2019-02-08T09:49:45.896Z,99155.96
2019-02-08T09:53:02.233Z,99158.66
2019-02-08T09:56:07.440Z,99070.06
2019-02-08T09:59:14.072Z,99157.55
2019-02-08T10:02:38.420Z,99147.37
2019-02-08T10:05:35.073Z,99147.73
2019-02-08T10:08:40.239Z,99146.88
2019-02-08T10:11:53.390Z,99145.06
2019-02-08T10:15:03.679Z,99143.80
2019-02-08T10:18:03.770Z,99137.20
2019-02-08T10:21:05.473Z,99135.72
2019-02-08T10:24:10.270Z,99116.55
2019-02-08T10:27:11.445Z,99125.80
2019-02-08T10:30:29.722Z,99121.50
2019-02-08T10:33:49.021Z,99123.27
2019-02-08T10:37:10.327Z,99126.54
2019-02-08T10:40:26.652Z,99126.17
2019-02-08T10:43:32.641Z,99126.03
2019-02-08T10:46:35.531Z,99121.93
2019-02-08T10:49:29.386Z,99116.99
2019-02-08T10:52:45.879Z,99113.41
2019-02-08T10:55:59.019Z,99112.70
2019-02-08T10:59:05.696Z,99111.31
2019-02-08T11:02:07.691Z,99093.56
2019-02-08T11:05:14.060Z,99104.03
2019-02-08T11:08:20.840Z,99093.00
2019-02-08T11:11:30.064Z,99094.80
2019-02-08T11:14:30.649Z,99097.50
2019-02-08T11:17:38.122Z,99091.45
2019-02-08T11:20:07.309Z,99094.09
2019-02-08T11:22:36.615Z,99088.72
2019-02-08T11:25:06.222Z,99084.76
2019-02-08T11:27:35.378Z,99085.06
2019-02-08T11:30:06.444Z,99081.66
2019-02-08T11:32:43.188Z,99078.22
2019-02-08T11:35:08.926Z,99068.22
2019-02-08T11:37:38.023Z,99063.43
2019-02-08T11:40:11.215Z,99056.59
2019-02-08T11:42:43.900Z,99042.86
2019-02-08T11:45:13.247Z,99050.44
2019-02-08T11:47:42.399Z,99042.77
2019-02-08T11:50:15.169Z,99051.14
2019-02-08T11:52:46.390Z,99038.88
2019-02-08T11:55:15.919Z,99044.89
2019-02-08T11:57:45.068Z,99042.68
2019-02-08T12:00:22.258Z,99029.27
2019-02-08T12:02:52.740Z,99040.48
2019-02-08T12:05:23.864Z,99030.55
2019-02-08T12:07:53.644Z,99024.87
2019-02-08T12:10:22.707Z,99015.53
2019-02-08T12:12:51.811Z,99018.66
2019-02-08T12:15:21.068Z,99017.98
2019-02-08T12:17:51.315Z,99014.37
2019-02-08T12:20:20.408Z,99014.52
2019-02-08T12:22:50.806Z,99013.31
2019-02-08T12:25:21.777Z,99006.24
2019-02-08T12:27:51.699Z,99013.33
2019-02-08T12:30:25.945Z,99008.84
2019-02-08T12:33:00.656Z,98999.53
2019-02-08T12:35:30.265Z,98991.77
2019-02-08T12:37:59.458Z,98990.16
2019-02-08T12:40:30.424Z,98989.31
2019-02-08T12:43:01.223Z,98985.94
2019-02-08T12:45:30.323Z,98975.16
2019-02-08T12:47:59.395Z,98966.95
2019-02-08T12:50:28.921Z,98972.66
2019-02-08T12:52:58.131Z,98962.52
2019-02-08T12:55:27.533Z,98961.00
2019-02-08T12:57:56.540Z,98955.35
2019-02-08T13:00:25.603Z,98955.77
2019-02-08T13:02:56.559Z,98953.23
2019-02-08T13:05:25.769Z,98950.71
2019-02-08T13:07:55.062Z,98944.58
2019-02-08T13:10:24.134Z,98948.39
2019-02-08T13:12:53.190Z,98952.34
2019-02-08T13:15:22.289Z,98940.98
2019-02-08T13:17:51.353Z,98926.57
2019-02-08T13:20:20.549Z,98926.56
2019-02-08T13:22:49.574Z,98928.78
2019-02-08T13:25:18.639Z,98918.19
2019-02-08T13:27:47.785Z,98921.42
2019-02-08T13:30:22.265Z,98909.87
2019-02-08T13:32:52.607Z,98901.99
2019-02-08T13:35:23.229Z,98900.44
2019-02-08T13:37:52.276Z,98891.23
2019-02-08T13:40:21.464Z,98878.25
2019-02-08T13:42:50.536Z,98866.69
2019-02-08T13:45:19.576Z,98863.75
2019-02-08T13:47:48.700Z,98869.77
2019-02-08T13:50:19.953Z,98865.04
2019-02-08T13:52:49.574Z,98865.48
2019-02-08T13:55:19.396Z,98861.55
2019-02-08T13:57:48.518Z,98854.86
2019-02-08T14:00:26.282Z,98856.12
2019-02-08T14:02:56.482Z,98849.19
2019-02-08T14:05:25.542Z,98846.41
2019-02-08T14:07:54.619Z,98837.21
2019-02-08T14:10:23.694Z,98840.13
2019-02-08T14:12:52.830Z,98840.33
2019-02-08T14:15:22.015Z,98841.28
2019-02-08T14:17:51.169Z,98836.14
2019-02-08T14:20:21.844Z,98836.31
2019-02-08T14:22:50.901Z,98833.04
2019-02-08T14:25:20.256Z,98833.39
2019-02-08T14:27:50.584Z,98839.72
2019-02-08T14:30:33.450Z,98831.41
2019-02-08T14:33:02.877Z,98833.41
2019-02-08T14:35:31.989Z,98825.09
2019-02-08T14:38:02.789Z,98822.69
2019-02-08T14:40:31.861Z,98826.11
2019-02-08T14:43:00.999Z,98819.36
2019-02-08T14:45:30.060Z,98821.61
2019-02-08T14:48:08.144Z,98820.69
2019-02-08T14:50:37.500Z,98817.86
2019-02-08T14:53:06.557Z,98823.14
2019-02-08T14:55:37.649Z,98823.39
2019-02-08T14:58:07.258Z,98813.01
2019-02-08T15:00:38.647Z,98819.09
2019-02-08T15:03:07.780Z,98807.43
2019-02-08T15:05:36.786Z,98805.98
2019-02-08T15:08:05.977Z,98798.23
2019-02-08T15:10:39.722Z,98805.28
2019-02-08T15:13:10.128Z,98802.29
2019-02-08T15:15:39.315Z,98799.39
2019-02-08T15:18:08.389Z,98809.80
2019-02-08T15:20:37.462Z,98802.95
2019-02-08T15:23:06.721Z,98799.64
2019-02-08T15:25:36.455Z,98796.16
2019-02-08T15:28:08.602Z,98791.27
2019-02-08T15:30:39.169Z,98781.78
2019-02-08T15:33:08.277Z,98782.28
2019-02-08T15:35:37.971Z,98783.33
2019-02-08T15:38:10.441Z,98776.84
2019-02-08T15:40:45.449Z,98777.31
2019-02-08T15:43:32.747Z,98777.56
2019-02-08T15:46:07.317Z,98774.16
2019-02-08T15:48:38.863Z,98769.33
2019-02-08T15:51:07.996Z,98773.59
2019-02-08T15:53:37.121Z,98760.59
2019-02-08T15:56:12.270Z,98755.42
2019-02-08T15:58:43.561Z,98756.62
2019-02-08T16:01:13.482Z,98753.71
2019-02-08T16:03:42.628Z,98749.91
2019-02-08T16:06:12.875Z,98749.94
2019-02-08T16:08:42.047Z,98739.34
2019-02-08T16:11:11.149Z,98729.74
2019-02-08T16:13:40.320Z,98737.15
2019-02-08T16:16:09.383Z,98725.25
2019-02-08T16:18:38.417Z,98718.28
2019-02-08T16:21:07.487Z,98718.91
2019-02-08T16:23:36.790Z,98722.79
2019-02-08T16:26:08.185Z,98717.91
2019-02-08T16:28:37.349Z,98713.84
2019-02-08T16:31:06.756Z,98708.97
2019-02-08T16:33:35.901Z,98700.09
2019-02-08T16:36:06.021Z,98707.61
2019-02-08T16:38:35.074Z,98697.34
2019-02-08T16:41:04.208Z,98698.20
2019-02-08T16:43:33.305Z,98692.06
2019-02-08T16:46:02.438Z,98688.69
2019-02-08T16:48:31.531Z,98688.52
2019-02-08T16:51:00.596Z,98691.06
2019-02-08T16:53:29.628Z,98685.33
2019-02-08T16:55:59.720Z,98680.86
2019-02-08T16:58:28.755Z,98679.95
2019-02-08T17:00:57.888Z,98676.20
2019-02-08T17:03:26.978Z,98678.83
2019-02-08T17:05:56.071Z,98669.70
2019-02-08T17:08:25.154Z,98663.50
2019-02-08T17:10:54.230Z,98668.86
2019-02-08T17:13:23.323Z,98665.48
2019-02-08T17:15:52.405Z,98667.53
2019-02-08T17:18:21.547Z,98668.84
2019-02-08T17:20:50.634Z,98657.80
2019-02-08T17:23:19.718Z,98657.72
2019-02-08T17:25:48.899Z,98658.09
2019-02-08T17:28:20.264Z,98660.14
2019-02-08T17:30:51.567Z,98656.44
2019-02-08T17:33:21.127Z,98656.69
2019-02-08T17:35:50.250Z,98651.50
2019-02-08T17:38:20.763Z,98653.58
2019-02-08T17:40:50.048Z,98647.59
2019-02-08T17:43:19.134Z,98644.45
2019-02-08T17:45:50.259Z,98643.39
2019-02-08T17:48:19.332Z,98635.83
2019-02-08T17:50:48.403Z,98637.37
2019-02-08T17:53:17.557Z,98633.92
2019-02-08T17:55:48.301Z,98630.81
2019-02-08T17:58:17.507Z,98637.11
2019-02-08T18:00:48.875Z,98623.88
2019-02-08T18:03:18.040Z,98624.49
2019-02-08T18:05:47.157Z,98615.56
2019-02-08T18:08:18.555Z,98620.23
2019-02-08T18:10:47.603Z,98614.69
2019-02-08T18:13:17.570Z,98607.48
2019-02-08T18:15:46.694Z,98606.13
2019-02-08T18:18:17.961Z,98604.11
2019-02-08T18:20:49.009Z,98598.48
2019-02-08T18:23:18.080Z,98602.50
2019-02-08T18:25:47.154Z,98607.45
2019-02-08T18:28:16.651Z,98594.38
2019-02-08T18:30:45.946Z,98593.98
2019-02-08T18:33:15.115Z,98593.31
2019-02-08T18:35:46.620Z,98589.70
2019-02-08T18:38:15.755Z,98596.61
2019-02-08T18:40:44.927Z,98596.39
2019-02-08T18:43:14.004Z,98586.05
2019-02-08T18:45:43.114Z,98580.98
2019-02-08T18:48:12.235Z,98584.25
2019-02-08T18:50:44.666Z,98575.66
2019-02-08T18:53:14.887Z,98576.86
2019-02-08T18:55:45.117Z,98577.52
2019-02-08T18:58:19.059Z,98580.07
2019-02-08T19:00:47.898Z,98574.64
2019-02-08T19:03:17.181Z,98570.90
2019-02-08T19:05:49.108Z,98562.13
2019-02-08T19:08:20.262Z,98557.97
2019-02-08T19:10:49.460Z,98560.26
2019-02-08T19:13:18.705Z,98551.68
2019-02-08T19:15:49.150Z,98547.15
2019-02-08T19:18:22.503Z,98542.25
2019-02-08T19:20:51.727Z,98540.92
2019-02-08T19:23:21.222Z,98537.75
2019-02-08T19:25:51.697Z,98531.90
2019-02-08T19:28:26.257Z,98538.19
2019-02-08T19:30:51.630Z,98534.41
2019-02-08T19:33:20.994Z,98525.30
2019-02-08T19:35:54.327Z,98525.95
2019-02-08T19:38:23.427Z,98519.63
2019-02-08T19:40:54.634Z,98516.43
2019-02-08T19:43:23.937Z,98517.62
2019-02-08T19:45:59.895Z,98507.50
2019-02-08T19:48:31.449Z,98507.02
2019-02-08T19:51:00.589Z,98497.41
2019-02-08T19:53:29.702Z,98503.75
2019-02-08T19:56:02.335Z,98494.76
2019-02-08T19:58:34.656Z,98496.11
2019-02-08T20:01:02.334Z,98411.02
2019-02-08T20:03:32.552Z,98482.28
2019-02-08T20:06:03.382Z,98472.28
2019-02-08T20:08:38.099Z,98479.38
2019-02-08T20:11:08.778Z,98475.20
2019-02-08T20:13:37.926Z,98474.83
2019-02-08T20:16:08.550Z,98475.45
2019-02-08T20:18:39.135Z,98461.50
2019-02-08T20:21:08.295Z,98462.31
2019-02-08T20:23:39.738Z,98453.20
2019-02-08T20:26:10.270Z,98453.67
2019-02-08T20:28:42.402Z,98445.13
2019-02-08T20:31:10.234Z,98452.04
2019-02-08T20:33:41.882Z,98443.30
2019-02-08T20:36:12.147Z,98450.16
2019-02-08T20:38:41.450Z,98448.47
2019-02-08T20:41:10.723Z,98451.81
2019-02-08T20:43:39.882Z,98454.03
2019-02-08T20:46:09.136Z,97930.08
2019-02-08T20:48:38.926Z,98454.56
2019-02-08T20:51:09.769Z,98439.03
2019-02-08T20:53:38.884Z,98440.69
2019-02-08T20:56:08.047Z,98445.54
2019-02-08T20:58:37.186Z,98440.13
2019-02-08T21:01:08.327Z,98438.45
2019-02-08T21:03:37.469Z,98439.77
2019-02-08T21:06:06.594Z,98439.84
2019-02-08T21:08:36.792Z,98429.39
2019-02-08T21:11:05.903Z,98427.97
2019-02-08T21:13:35.058Z,98417.82
2019-02-08T21:16:08.361Z,98422.30
2019-02-08T21:18:37.500Z,98418.81
2019-02-08T21:21:06.689Z,98422.80
2019-02-08T21:23:35.816Z,98424.02
2019-02-08T21:26:08.368Z,98417.92
2019-02-08T21:28:37.531Z,98417.48
2019-02-08T21:31:06.667Z,98419.50
2019-02-08T21:33:35.812Z,98416.14
2019-02-08T21:36:09.260Z,98403.05
2019-02-08T21:38:38.491Z,98402.31
2019-02-08T21:41:11.033Z,98408.36
2019-02-08T21:43:41.286Z,98405.69
2019-02-08T21:46:11.437Z,98414.23
2019-02-08T21:48:40.580Z,98400.41
2019-02-08T21:51:09.747Z,98406.72
2019-02-08T21:53:38.883Z,98421.34
2019-02-08T21:56:10.514Z,98411.97
2019-02-08T21:58:39.750Z,98410.09
2019-02-08T22:01:11.427Z,98400.81
2019-02-08T22:03:40.617Z,98407.63
2019-02-08T22:06:13.594Z,98390.81
2019-02-08T22:08:45.050Z,98404.23
2019-02-08T22:11:14.184Z,98399.22
2019-02-08T22:13:43.304Z,98400.81
2019-02-08T22:16:15.794Z,98397.91
2019-02-08T22:18:45.020Z,98392.20
2019-02-08T22:21:14.125Z,98379.46
2019-02-08T22:23:43.391Z,98373.91
2019-02-08T22:26:14.069Z,98370.78
2019-02-08T22:28:43.302Z,98377.45
2019-02-08T22:31:12.373Z,98361.19
2019-02-08T22:33:43.502Z,98351.05
2019-02-08T22:36:18.530Z,98344.23
2019-02-08T22:38:47.692Z,98347.30
2019-02-08T22:41:16.899Z,98337.97
2019-02-08T22:43:46.115Z,98334.09
2019-02-08T22:46:16.581Z,98324.84
2019-02-08T22:48:50.635Z,98327.83
2019-02-08T22:51:19.762Z,98329.28
2019-02-08T22:53:51.764Z,98328.25
2019-02-08T22:56:22.134Z,98325.14
2019-02-08T22:58:51.427Z,98326.59
2019-02-08T23:01:31.970Z,98334.09
2019-02-08T23:04:01.902Z,98333.54
2019-02-08T23:06:32.369Z,98335.50
2019-02-08T23:09:01.529Z,98327.06
2019-02-08T23:11:31.451Z,98321.73
2019-02-08T23:14:00.602Z,98308.10
2019-02-08T23:16:34.075Z,98286.13
2019-02-08T23:19:03.158Z,98290.17
2019-02-08T23:21:35.976Z,98274.50
2019-02-08T23:24:07.409Z,98274.40
2019-02-08T23:26:38.982Z,98273.27
2019-02-08T23:29:08.095Z,98270.21
2019-02-08T23:31:38.661Z,98267.97
2019-02-08T23:34:07.792Z,98261.84
2019-02-08T23:36:38.107Z,98250.84
2019-02-08T23:39:12.489Z,98247.87
2019-02-08T23:41:41.626Z,98240.70
2019-02-08T23:44:10.720Z,98242.87
2019-02-08T23:46:41.095Z,98238.92
2019-02-08T23:49:11.345Z,98232.20
2019-02-08T23:51:40.520Z,98230.68
2019-02-08T23:54:11.204Z,98227.56
2019-02-08T23:56:42.597Z,98228.61
2019-02-08T23:59:12.238Z,98221.05
